Kansas City, Missouri
Current Conditions -  °F | °C
As of 3:54 PM on Wednesday 22 Oct 2014 (Local Time) from KMKC Reporting Station
Clear Clear  
Wind Chill: 75°   Ceiling: Unl
Heat Index: 75°   Visibility: 10mi
Dew Point: 56°   Wind: 10mph
Humidity: 51%   Direction: 180°S
Pressure: 30.09"   Gusts: NA
Location:  39.1°N, 94.58°W
Report Text: KMKC 222054Z 18009KT 10SM CLR 24/13 A3009 RMK AO2 SLP185 T02390133 56025
Loading
Personal Weather Stations






























Interactive Weather Map
Tropical Storm Tracking
New forecast layout! Learn more

10-Day Weather Forecast

Advertisements
Track Severe Weather on mobile